Time;durP1;ratioP1;P1;durP2;ratioP2;P2;SDS_P1;SDS_P2;PMS_P1;PMS_P2;Temp;Humidity;BMP_temperature;BMP_pressure;BME280_temperature;BME280_humidity;BME280_pressure;Samples;Min_cycle;Max_cycle;Signal;HPM_P1;HPM_P2
2022/09/05 00:02:57;;;;;;;6.40;4.57;;;27.20;51.10;;;;;;4838091;29;20497;-72
2022/09/05 00:05:50;;;;;;;9.80;5.60;;;27.10;51.20;;;;;;4837632;29;20090;-72
2022/09/05 00:08:22;;;;;;;8.80;4.68;;;27.10;51.20;;;;;;4879767;29;20056;-73
2022/09/05 00:11:24;;;;;;;6.13;4.20;;;27.00;51.30;;;;;;4893705;29;20529;-73
2022/09/05 00:14:31;;;;;;;5.50;4.15;;;27.00;51.30;;;;;;4874694;29;20073;-73
2022/09/05 00:17:16;;;;;;;6.45;4.57;;;27.00;51.30;;;;;;4874717;29;20094;-73
2022/09/05 00:19:56;;;;;;;8.60;4.65;;;26.90;50.80;;;;;;4874753;29;20049;-72
2022/09/05 00:22:42;;;;;;;6.05;4.47;;;27.00;51.40;;;;;;4874581;29;20057;-73
2022/09/05 00:25:21;;;;;;;5.88;4.20;;;27.00;51.40;;;;;;4859158;29;20061;-73
2022/09/05 00:27:54;;;;;;;5.97;4.18;;;26.80;50.90;;;;;;4874569;29;20048;-72
2022/09/05 00:30:21;;;;;;;7.75;5.00;;;26.80;51.10;;;;;;4873727;29;20041;-73
2022/09/05 00:33:11;;;;;;;7.75;4.88;;;26.80;51.20;;;;;;4875114;29;20200;-73
2022/09/05 00:35:55;;;;;;;7.75;4.60;;;26.80;51.30;;;;;;4892651;29;20130;-73
2022/09/05 00:38:24;;;;;;;8.88;5.03;;;26.70;51.30;;;;;;4962407;28;20049;-73
2022/09/05 00:41:01;;;;;;;7.05;4.78;;;26.80;51.30;;;;;;4988328;28;20082;-73
2022/09/05 00:43:46;;;;;;;11.65;4.78;;;26.90;51.30;;;;;;4972534;28;20072;-72
2022/09/05 00:46:22;;;;;;;6.00;4.10;;;26.80;51.40;;;;;;4988526;28;20030;-73
2022/09/05 00:49:09;;;;;;;4.97;4.28;;;26.80;51.40;;;;;;4988873;28;20116;-72
2022/09/05 00:51:47;;;;;;;9.77;4.15;;;26.80;51.40;;;;;;5005576;28;20050;-73
2022/09/05 00:54:23;;;;;;;5.25;4.45;;;26.80;51.50;;;;;;5009738;28;20050;-72
2022/09/05 00:57:16;;;;;;;9.07;4.75;;;26.80;51.40;;;;;;5011145;28;20416;-73
2022/09/05 01:00:06;;;;;;;7.22;4.78;;;26.80;51.40;;;;;;5011259;28;20046;-72
2022/09/05 01:03:08;;;;;;;6.13;4.90;;;26.80;51.50;;;;;;5027987;28;20041;-73
2022/09/05 01:06:00;;;;;;;9.90;4.35;;;26.80;51.50;;;;;;5027944;28;20479;-73
2022/09/05 01:08:35;;;;;;;5.70;4.18;;;26.80;51.50;;;;;;4972955;28;20524;-73
2022/09/05 01:11:16;;;;;;;5.35;4.20;;;26.80;51.50;;;;;;4972733;28;20046;-72
2022/09/05 01:14:18;;;;;;;6.13;4.57;;;26.70;51.50;;;;;;4972677;28;20038;-71
2022/09/05 01:17:36;;;;;;;6.57;4.13;;;26.90;51.60;;;;;;4972879;28;20043;-73
2022/09/05 01:20:09;;;;;;;4.80;3.85;;;26.60;51.60;;;;;;4934357;29;20047;-73
2022/09/05 01:22:51;;;;;;;4.68;4.13;;;26.70;51.60;;;;;;4934079;29;20066;-73
2022/09/05 01:25:22;;;;;;;7.22;4.68;;;26.70;51.70;;;;;;4934079;29;20048;-73
2022/09/05 01:27:53;;;;;;;6.50;4.73;;;26.70;51.70;;;;;;4933849;29;20432;-72
2022/09/05 01:30:24;;;;;;;9.27;4.20;;;26.60;51.90;;;;;;4917587;29;20114;-73
2022/09/05 01:32:50;;;;;;;8.13;4.07;;;26.60;52.00;;;;;;4933477;29;20115;-72
2022/09/05 01:35:35;;;;;;;6.63;4.03;;;26.60;52.10;;;;;;4932502;29;20126;-73
2022/09/05 01:38:27;;;;;;;8.05;4.28;;;26.60;52.10;;;;;;4933252;29;20036;-72
2022/09/05 01:41:20;;;;;;;7.05;4.50;;;26.50;52.00;;;;;;4933695;29;20519;-72
2022/09/05 01:44:05;;;;;;;8.30;4.07;;;26.70;52.10;;;;;;4933770;29;20137;-70
2022/09/05 01:46:54;;;;;;;5.80;4.45;;;26.60;52.10;;;;;;4985196;28;20061;-73
2022/09/05 01:49:33;;;;;;;6.22;3.90;;;26.70;52.20;;;;;;4991529;28;20428;-73
2022/09/05 01:52:05;;;;;;;7.32;4.22;;;26.60;52.30;;;;;;4991422;28;20089;-73
2022/09/05 01:54:53;;;;;;;4.10;3.70;;;26.60;52.30;;;;;;4993289;28;20061;-73
2022/09/05 01:57:52;;;;;;;4.22;3.78;;;26.60;52.20;;;;;;4994208;28;20383;-73
2022/09/05 02:00:42;;;;;;;5.63;4.00;;;26.60;52.40;;;;;;4994095;28;20026;-72
2022/09/05 02:03:29;;;;;;;4.20;3.75;;;26.60;52.40;;;;;;4993787;28;20053;-73
2022/09/05 02:06:04;;;;;;;6.30;4.72;;;26.60;52.30;;;;;;4994110;28;20065;-73
2022/09/05 02:08:39;;;;;;;9.35;4.35;;;26.50;52.40;;;;;;4993896;28;20046;-72
2022/09/05 02:11:06;;;;;;;8.02;4.13;;;26.60;52.40;;;;;;4993862;28;20058;-73
2022/09/05 02:13:35;;;;;;;7.35;3.35;;;26.50;52.50;;;;;;4992514;28;20041;-73
2022/09/05 02:16:16;;;;;;;4.53;3.53;;;26.60;52.40;;;;;;4993621;28;20034;-72
2022/09/05 02:19:00;;;;;;;5.15;3.47;;;26.60;52.40;;;;;;4993303;28;20062;-73
2022/09/05 02:21:32;;;;;;;6.00;4.45;;;26.40;52.40;;;;;;4993734;28;20077;-73
2022/09/05 02:24:22;;;;;;;5.10;3.40;;;26.40;52.60;;;;;;4993701;28;20049;-73
2022/09/05 02:27:20;;;;;;;12.85;4.47;;;26.50;52.70;;;;;;4992014;28;20045;-72
2022/09/05 02:30:15;;;;;;;6.75;4.10;;;26.40;52.60;;;;;;4970991;28;20047;-73
2022/09/05 02:32:51;;;;;;;5.30;3.95;;;26.50;52.70;;;;;;4978473;28;20049;-72
2022/09/05 02:35:25;;;;;;;5.15;4.20;;;26.50;52.70;;;;;;4971109;28;20039;-73
2022/09/05 02:38:13;;;;;;;5.63;4.18;;;26.40;52.60;;;;;;4971344;28;20096;-72
2022/09/05 02:40:57;;;;;;;6.07;4.10;;;26.50;52.70;;;;;;4971334;28;20047;-71
2022/09/05 02:43:51;;;;;;;5.13;3.92;;;26.40;52.70;;;;;;4977760;28;20189;-72
2022/09/05 02:46:48;;;;;;;5.05;3.65;;;26.40;52.70;;;;;;4990280;28;20046;-72
2022/09/05 02:49:41;;;;;;;5.45;3.95;;;26.50;52.70;;;;;;4990320;28;20415;-72
2022/09/05 02:52:12;;;;;;;4.85;3.45;;;26.30;52.60;;;;;;4990525;28;20123;-71
2022/09/05 02:54:45;;;;;;;5.35;3.22;;;26.40;52.70;;;;;;4990321;28;20065;-72
2022/09/05 02:57:16;;;;;;;6.88;3.63;;;26.40;52.80;;;;;;4990206;28;20117;-72
2022/09/05 03:00:10;;;;;;;7.47;3.80;;;26.30;52.70;;;;;;4990296;28;20050;-72
2022/09/05 03:02:55;;;;;;;5.38;3.83;;;26.50;52.50;;;;;;4990547;28;20816;-72
2022/09/05 03:05:33;;;;;;;8.63;3.70;;;26.50;52.50;;;;;;4980571;28;20038;-72
2022/09/05 03:08:30;;;;;;;5.15;3.55;;;26.30;52.50;;;;;;4992579;28;20046;-71
2022/09/05 03:11:36;;;;;;;5.38;3.63;;;26.40;52.50;;;;;;4992784;28;20595;-72
2022/09/05 03:14:23;;;;;;;4.35;3.58;;;26.30;52.50;;;;;;4992554;28;20388;-72
2022/09/05 03:16:49;;;;;;;6.45;3.65;;;26.40;52.70;;;;;;4992611;28;20471;-72
2022/09/05 03:19:53;;;;;;;6.53;4.13;;;26.30;52.70;;;;;;4992677;28;20038;-71
2022/09/05 03:22:38;;;;;;;;;;;26.30;52.70;;;;;;4992897;28;20027;-72
2022/09/05 03:25:16;;;;;;;5.30;3.80;;;26.30;52.70;;;;;;4992446;28;19910;-73
2022/09/05 03:28:19;;;;;;;3.88;3.20;;;26.30;52.70;;;;;;4992329;28;20030;-71
2022/09/05 03:31:04;;;;;;;5.38;3.85;;;26.40;52.70;;;;;;5003694;28;20113;-72
2022/09/05 03:33:58;;;;;;;6.72;3.15;;;26.30;52.70;;;;;;5011949;28;20731;-72
2022/09/05 03:36:37;;;;;;;9.02;4.15;;;26.40;52.70;;;;;;5011722;28;20034;-72
2022/09/05 03:39:51;;;;;;;4.00;3.47;;;26.30;52.70;;;;;;5011617;28;20081;-72
2022/09/05 03:42:26;;;;;;;;;;;26.30;52.70;;;;;;4990054;28;20042;-72
2022/09/05 03:45:12;;;;;;;5.43;3.85;;;26.30;52.70;;;;;;4989499;28;19910;-71
2022/09/05 03:48:06;;;;;;;8.23;4.72;;;26.20;52.60;;;;;;4989330;28;20862;-72
2022/09/05 03:50:43;;;;;;;;;;;26.30;52.60;;;;;;4990078;28;20049;-73
2022/09/05 03:53:19;;;;;;;6.57;3.78;;;26.30;52.50;;;;;;4989379;28;20414;-74
2022/09/05 03:56:00;;;;;;;3.88;2.85;;;26.50;51.90;;;;;;4989379;28;20108;-73
2022/09/05 03:58:55;;;;;;;7.97;4.15;;;26.60;51.60;;;;;;4989299;28;20046;-74
2022/09/05 04:01:51;;;;;;;8.63;4.07;;;26.60;51.30;;;;;;4989426;28;20133;-73
2022/09/05 04:04:36;;;;;;;5.70;3.22;;;26.70;51.10;;;;;;4912420;29;20127;-72
2022/09/05 04:07:07;;;;;;;4.47;3.78;;;26.60;50.90;;;;;;4912309;29;20493;-71
2022/09/05 04:09:39;;;;;;;7.82;3.75;;;26.80;50.70;;;;;;4927774;29;20048;-74
2022/09/05 04:12:25;;;;;;;5.87;3.93;;;27.00;54.20;;;;;;4912374;29;20718;-73
2022/09/05 04:15:07;;;;;;;6.60;4.75;;;27.20;55.00;;;;;;4912349;29;20334;-74
2022/09/05 04:17:36;;;;;;;8.02;4.65;;;27.30;55.30;;;;;;4913320;29;20028;-74
2022/09/05 04:20:35;;;;;;;9.32;4.18;;;27.50;56.70;;;;;;4918817;29;20165;-74
2022/09/05 04:23:14;;;;;;;5.80;3.53;;;27.30;51.60;;;;;;4950314;29;20047;-73
2022/09/05 04:25:55;;;;;;;8.63;3.75;;;27.30;50.60;;;;;;4950409;29;20027;-72
2022/09/05 04:28:39;;;;;;;5.85;3.53;;;27.30;49.80;;;;;;4933439;29;20039;-72
2022/09/05 04:31:29;;;;;;;9.98;4.32;;;27.30;49.40;;;;;;4950448;29;20039;-73
2022/09/05 04:33:55;;;;;;;7.80;4.07;;;27.30;48.80;;;;;;4950279;29;20055;-72
2022/09/05 04:36:27;;;;;;;5.43;4.28;;;27.30;48.50;;;;;;4950521;29;20532;-73
2022/09/05 04:39:17;;;;;;;6.55;3.85;;;27.40;48.20;;;;;;4950443;28;20400;-72
2022/09/05 04:42:01;;;;;;;8.02;4.13;;;27.30;48.00;;;;;;4993139;28;20045;-73
2022/09/05 04:44:53;;;;;;;9.27;4.00;;;27.30;47.80;;;;;;5015078;28;20034;-73
2022/09/05 04:47:33;;;;;;;1.77;1.25;;;27.30;47.60;;;;;;5015175;28;20034;-74
2022/09/05 04:50:16;;;;;;;4.97;1.90;;;27.30;48.40;;;;;;5014890;28;20042;-74
2022/09/05 04:53:18;;;;;;;3.90;3.20;;;27.30;48.30;;;;;;5013710;28;20017;-74
2022/09/05 04:55:50;;;;;;;2.00;1.67;;;27.30;47.90;;;;;;5014751;28;20088;-74
2022/09/05 04:58:28;;;;;;;2.53;1.50;;;27.40;47.80;;;;;;5014382;28;20535;-73
2022/09/05 05:00:57;;;;;;;2.63;1.58;;;27.30;46.60;;;;;;5014558;28;20049;-74
2022/09/05 05:03:27;;;;;;;8.00;3.50;;;27.40;46.70;;;;;;5014563;28;20042;-72
2022/09/05 05:06:20;;;;;;;2.13;2.03;;;27.20;46.20;;;;;;5014810;28;20149;-74
2022/09/05 05:09:22;;;;;;;2.90;1.95;;;27.30;46.00;;;;;;5013932;28;20046;-73
2022/09/05 05:12:03;;;;;;;2.67;2.13;;;27.20;45.40;;;;;;4991592;28;20056;-74
2022/09/05 05:14:41;;;;;;;1.13;1.13;;;27.20;45.30;;;;;;4975568;28;20130;-74
2022/09/05 05:17:22;;;;;;;3.53;2.22;;;27.10;45.50;;;;;;4992120;28;20129;-72
2022/09/05 05:20:07;;;;;;;1.60;1.50;;;27.10;45.40;;;;;;4992425;28;20034;-72
2022/09/05 05:22:34;;;;;;;7.78;5.07;;;27.00;45.00;;;;;;4992050;28;20499;-71
2022/09/05 05:25:01;;;;;;;6.68;4.82;;;26.90;45.30;;;;;;4991382;28;20033;-72
2022/09/05 05:27:41;;;;;;;9.32;5.10;;;27.00;46.60;;;;;;4991973;28;20042;-73
2022/09/05 05:30:10;;;;;;;8.23;5.30;;;27.00;46.50;;;;;;5007023;28;20043;-72
2022/09/05 05:32:41;;;;;;;6.00;4.15;;;27.10;46.30;;;;;;4990810;28;20372;-74
2022/09/05 05:35:11;;;;;;;10.60;5.15;;;27.00;45.90;;;;;;4990811;28;20436;-73
2022/09/05 05:37:44;;;;;;;7.75;4.07;;;27.00;46.00;;;;;;4990721;28;20050;-71
2022/09/05 05:40:18;;;;;;;6.60;4.20;;;27.00;47.50;;;;;;4989470;28;20097;-71
2022/09/05 05:42:45;;;;;;;10.93;4.70;;;27.10;48.00;;;;;;4990564;28;20038;-72
2022/09/05 05:45:22;;;;;;;5.72;4.55;;;27.00;48.20;;;;;;4990402;28;20034;-72
2022/09/05 05:48:00;;;;;;;6.40;4.32;;;27.00;48.20;;;;;;4995636;28;20077;-71
2022/09/05 05:50:37;;;;;;;7.82;4.50;;;27.10;48.00;;;;;;5012365;28;20030;-71
2022/09/05 05:53:28;;;;;;;8.85;4.68;;;27.10;48.10;;;;;;5011799;28;20438;-71
2022/09/05 05:56:26;;;;;;;6.93;4.47;;;27.10;47.80;;;;;;5010676;28;20693;-71
2022/09/05 05:59:28;;;;;;;5.57;4.35;;;27.00;47.70;;;;;;5010383;28;20077;-74
2022/09/05 06:01:57;;;;;;;8.97;4.70;;;27.00;47.50;;;;;;4988690;28;20427;-74
2022/09/05 06:04:56;;;;;;;6.03;4.80;;;27.00;47.40;;;;;;4989863;28;20422;-71
2022/09/05 06:07:44;;;;;;;7.72;4.97;;;27.10;47.10;;;;;;4989980;28;20046;-73
2022/09/05 06:10:32;;;;;;;6.18;4.30;;;27.10;46.90;;;;;;4987748;28;20444;-72
2022/09/05 06:13:27;;;;;;;12.38;4.53;;;27.00;47.20;;;;;;4990017;28;20435;-72
2022/09/05 06:16:08;;;;;;;5.32;4.45;;;27.00;47.90;;;;;;4988084;28;20113;-72
2022/09/05 06:19:15;;;;;;;5.07;4.13;;;27.00;49.20;;;;;;4990027;28;20403;-72
2022/09/05 06:22:14;;;;;;;6.15;4.20;;;27.10;48.70;;;;;;4911946;29;20060;-71
2022/09/05 06:25:01;;;;;;;6.60;3.92;;;27.00;48.50;;;;;;4913200;29;20040;-73
2022/09/05 06:27:45;;;;;;;4.90;4.07;;;27.00;48.90;;;;;;4920292;29;20084;-72
2022/09/05 06:30:21;;;;;;;9.50;4.63;;;26.90;48.60;;;;;;4918194;29;20521;-72
2022/09/05 06:32:57;;;;;;;8.88;4.05;;;27.00;49.10;;;;;;4913993;29;20067;-71
2022/09/05 06:35:44;;;;;;;10.35;5.00;;;27.00;49.10;;;;;;4914160;29;20048;-69
2022/09/05 06:38:38;;;;;;;7.95;4.45;;;27.00;48.70;;;;;;4920664;29;20520;-71
2022/09/05 06:41:24;;;;;;;4.93;4.10;;;27.20;49.20;;;;;;4946210;29;20070;-70
2022/09/05 06:44:13;;;;;;;9.35;4.38;;;27.20;49.20;;;;;;4948770;29;20098;-69
2022/09/05 06:46:41;;;;;;;5.43;4.15;;;27.10;49.10;;;;;;4948484;29;20425;-73
2022/09/05 06:49:19;;;;;;;5.32;4.18;;;27.10;49.20;;;;;;4948450;29;20057;-72
2022/09/05 06:51:55;;;;;;;6.80;4.43;;;27.10;49.20;;;;;;4945551;29;20485;-70
2022/09/05 06:54:43;;;;;;;7.38;4.32;;;27.10;49.20;;;;;;4948010;29;20044;-72
2022/09/05 06:57:40;;;;;;;6.45;4.07;;;27.20;49.20;;;;;;5026225;28;20076;-73
2022/09/05 07:00:24;;;;;;;6.80;4.03;;;27.20;49.30;;;;;;4967627;28;20114;-74
2022/09/05 07:03:10;;;;;;;6.63;4.13;;;27.20;49.30;;;;;;4966846;28;20039;-73
2022/09/05 07:05:53;;;;;;;11.68;5.72;;;27.10;49.50;;;;;;4967118;28;20129;-72
2022/09/05 07:08:25;;;;;;;;;;;27.30;49.50;;;;;;4964561;28;20077;-71
2022/09/05 07:11:03;;;;;;;8.68;4.45;;;27.20;50.00;;;;;;4967353;28;19914;-71
2022/09/05 07:13:44;;;;;;;12.48;5.18;;;27.20;49.90;;;;;;4964730;28;20736;-69
2022/09/05 07:16:13;;;;;;;9.02;5.65;;;27.20;50.00;;;;;;4966734;28;20062;-71
2022/09/05 07:18:55;;;;;;;8.88;4.60;;;27.10;49.80;;;;;;4967656;28;20031;-72
2022/09/05 07:21:34;;;;;;;6.07;4.60;;;27.30;49.40;;;;;;4965368;28;20043;-73
2022/09/05 07:24:02;;;;;;;9.15;4.82;;;27.10;50.50;;;;;;4967423;28;20288;-71
2022/09/05 07:26:33;;;;;;;5.38;4.07;;;27.10;50.10;;;;;;4949115;28;20043;-74
2022/09/05 07:29:04;;;;;;;9.13;4.13;;;27.10;49.40;;;;;;4947690;28;20058;-71
2022/09/05 07:31:34;;;;;;;9.88;4.63;;;27.00;49.30;;;;;;4947460;28;20433;-69
2022/09/05 07:34:24;;;;;;;6.22;4.35;;;27.10;48.90;;;;;;4948325;28;20101;-70
2022/09/05 07:37:06;;;;;;;7.88;4.43;;;27.20;48.50;;;;;;4986836;28;20495;-80
2022/09/05 07:39:40;;;;;;;5.63;4.00;;;27.10;48.00;;;;;;5009164;28;20034;-72
2022/09/05 07:42:14;;;;;;;5.95;4.38;;;27.30;47.70;;;;;;5011656;28;20091;-71
2022/09/05 07:44:59;;;;;;;6.22;4.60;;;27.10;47.40;;;;;;5012081;28;20121;-70
2022/09/05 07:47:29;;;;;;;8.20;4.20;;;27.20;47.00;;;;;;5011439;28;20038;-75
2022/09/05 07:50:03;;;;;;;5.10;4.15;;;27.10;46.70;;;;;;5011198;28;20084;-70
2022/09/05 07:52:36;;;;;;;6.50;4.20;;;27.30;46.70;;;;;;5011399;28;20092;-71
2022/09/05 07:55:09;;;;;;;;;;;27.10;46.70;;;;;;5012314;28;20045;-72
2022/09/05 07:57:41;;;;;;;6.72;3.88;;;27.20;46.60;;;;;;5025263;28;19909;-73
2022/09/05 08:00:11;;;;;;;5.20;3.65;;;27.20;46.10;;;;;;5011909;28;20046;-74
2022/09/05 08:02:47;;;;;;;8.10;3.97;;;27.20;46.10;;;;;;5011911;28;20042;-74
2022/09/05 08:05:15;;;;;;;7.75;4.55;;;27.20;46.10;;;;;;5012158;28;20364;-72
2022/09/05 08:07:45;;;;;;;6.57;3.67;;;27.30;46.40;;;;;;5011999;28;20030;-74
2022/09/05 08:10:16;;;;;;;8.52;4.28;;;27.30;46.70;;;;;;5011438;28;20050;-72
2022/09/05 08:12:52;;;;;;;3.10;2.70;;;27.30;46.80;;;;;;5010861;28;20064;-74
2022/09/05 08:15:22;;;;;;;5.30;3.80;;;27.10;46.90;;;;;;5011965;28;20150;-73
2022/09/05 08:17:57;;;;;;;7.80;4.00;;;27.20;46.70;;;;;;5014185;28;20029;-71
2022/09/05 08:20:54;;;;;;;7.15;4.25;;;27.20;46.40;;;;;;5014662;28;20037;-71
2022/09/05 08:23:47;;;;;;;3.90;2.80;;;27.30;46.10;;;;;;5015157;28;20049;-71
2022/09/05 08:26:24;;;;;;;;;;;27.20;45.70;;;;;;5015445;28;20112;-72
2022/09/05 08:29:18;;;;;;;4.82;3.35;;;27.20;45.20;;;;;;5013094;28;19921;-71
2022/09/05 08:31:52;;;;;;;7.55;3.03;;;27.10;45.00;;;;;;4996047;28;20031;-71
2022/09/05 08:34:31;;;;;;;4.20;3.47;;;27.10;44.70;;;;;;4995641;28;20395;-73
2022/09/05 08:37:00;;;;;;;6.70;3.00;;;27.00;44.50;;;;;;5003958;28;20476;-72
2022/09/05 08:39:30;;;;;;;4.90;2.65;;;27.10;44.40;;;;;;5015965;28;20050;-72
2022/09/05 08:42:34;;;;;;;6.15;3.05;;;27.20;44.50;;;;;;5014028;28;20441;-74
2022/09/05 08:45:20;;;;;;;5.38;2.65;;;27.00;45.20;;;;;;5015479;28;20353;-69
2022/09/05 08:47:59;;;;;;;13.57;6.93;;;27.20;48.60;;;;;;5015347;28;20132;-72
2022/09/05 08:50:44;;;;;;;8.55;3.03;;;27.40;47.20;;;;;;5015214;28;20121;-70
2022/09/05 08:53:24;;;;;;;4.60;3.05;;;27.40;44.70;;;;;;5014673;28;20044;-70
2022/09/05 08:56:03;;;;;;;3.80;2.38;;;27.40;45.30;;;;;;5013745;28;20432;-71
2022/09/05 08:58:44;;;;;;;1.67;1.58;;;27.20;41.50;;;;;;5014601;28;20053;-69
2022/09/05 09:01:59;;;;;;;3.83;1.92;;;27.30;40.50;;;;;;5012092;28;20030;-70
2022/09/05 09:05:10;;;;;;;5.60;2.05;;;27.20;40.20;;;;;;4972823;28;20133;-69
2022/09/05 09:07:52;;;;;;;2.75;1.63;;;27.30;39.30;;;;;;4973183;28;20072;-69
2022/09/05 09:10:26;;;;;;;2.83;1.90;;;27.20;39.40;;;;;;4970011;28;20039;-69
2022/09/05 09:13:08;;;;;;;2.13;1.65;;;27.00;38.00;;;;;;4973084;28;20109;-70
2022/09/05 09:15:40;;;;;;;2.58;1.23;;;27.10;38.00;;;;;;4972275;28;20057;-68
2022/09/05 09:18:17;;;;;;;3.00;1.43;;;27.10;39.30;;;;;;4972816;28;20090;-69
2022/09/05 09:21:21;;;;;;;2.13;1.90;;;27.10;39.40;;;;;;4973020;28;20085;-68
2022/09/05 09:24:16;;;;;;;2.75;1.50;;;27.20;38.90;;;;;;4934106;29;20066;-68
2022/09/05 09:27:11;;;;;;;5.78;1.90;;;27.20;40.00;;;;;;4933382;29;20056;-69
2022/09/05 09:29:41;;;;;;;2.85;0.95;;;27.30;39.40;;;;;;4877622;29;20061;-68
2022/09/05 09:32:16;;;;;;;1.60;1.17;;;27.30;40.80;;;;;;4877959;29;20105;-69
2022/09/05 09:35:10;;;;;;;2.25;1.13;;;27.20;40.40;;;;;;4881120;29;20483;-68
2022/09/05 09:37:42;;;;;;;0.93;0.70;;;27.30;41.60;;;;;;4896403;29;20044;-68
2022/09/05 09:40:23;;;;;;;1.92;1.00;;;27.40;42.60;;;;;;4901373;29;20048;-67
2022/09/05 09:43:04;;;;;;;1.55;1.17;;;27.40;39.80;;;;;;4896264;29;20052;-68
2022/09/05 09:45:56;;;;;;;4.82;1.00;;;27.50;41.20;;;;;;4915241;29;20071;-68
2022/09/05 09:48:42;;;;;;;1.20;1.10;;;27.60;41.80;;;;;;4914941;29;20135;-68
2022/09/05 09:51:11;;;;;;;0.50;0.50;;;28.00;49.80;;;;;;4930837;29;20044;-68
2022/09/05 09:53:52;;;;;;;0.50;0.50;;;28.10;39.80;;;;;;4914847;29;20048;-67
2022/09/05 09:56:55;;;;;;;1.25;1.15;;;28.00;36.70;;;;;;4914440;29;20180;-68
2022/09/05 09:59:41;;;;;;;2.35;1.38;;;28.00;37.00;;;;;;4918526;29;20052;-68
2022/09/05 10:03:09;;;;;;;2.55;1.80;;;28.20;40.90;;;;;;4933958;29;20529;-68
2022/09/05 10:05:59;;;;;;;5.35;2.17;;;28.50;43.70;;;;;;4904620;29;20039;-68
2022/09/05 10:09:00;;;;;;;1.45;1.25;;;29.00;46.20;;;;;;4947087;28;20047;-68
2022/09/05 10:12:08;;;;;;;2.28;1.80;;;29.20;41.30;;;;;;4943172;28;20059;-68
2022/09/05 10:14:40;;;;;;;2.70;1.80;;;29.00;32.60;;;;;;4918862;29;20044;-68
2022/09/05 10:17:37;;;;;;;1.77;1.55;;;28.90;35.00;;;;;;4914259;29;20063;-68
2022/09/05 10:20:09;;;;;;;4.15;1.60;;;28.70;33.20;;;;;;4941434;28;20053;-67
2022/09/05 10:22:56;;;;;;;5.45;2.33;;;28.80;34.50;;;;;;4943801;28;20082;-67
2022/09/05 10:26:00;;;;;;;1.15;1.05;;;28.70;34.10;;;;;;4948252;28;20059;-68
2022/09/05 10:28:48;;;;;;;0.68;0.68;;;28.70;36.10;;;;;;4932385;29;20043;-68
2022/09/05 10:31:17;;;;;;;0.75;0.75;;;28.60;35.10;;;;;;4939141;28;20036;-68
2022/09/05 10:34:17;;;;;;;0.65;0.63;;;28.50;34.80;;;;;;4935506;29;20043;-68
2022/09/05 10:37:01;;;;;;;0.77;0.65;;;28.50;35.40;;;;;;4944378;28;20043;-67
2022/09/05 10:39:28;;;;;;;0.40;0.40;;;28.60;35.70;;;;;;4936426;29;20125;-68
2022/09/05 10:42:19;;;;;;;1.38;1.27;;;28.50;35.40;;;;;;4948224;28;20051;-68
2022/09/05 10:44:52;;;;;;;2.95;1.83;;;28.40;34.50;;;;;;4932966;29;20044;-68
2022/09/05 10:47:38;;;;;;;1.83;1.70;;;28.30;33.70;;;;;;4932629;29;20524;-68
2022/09/05 10:50:22;;;;;;;3.28;1.75;;;28.40;34.50;;;;;;4940470;29;20153;-68
2022/09/05 10:53:13;;;;;;;2.17;1.70;;;28.30;34.30;;;;;;4952106;29;20319;-67
2022/09/05 10:56:14;;;;;;;3.92;1.90;;;28.20;35.40;;;;;;4951777;29;20126;-68
2022/09/05 10:58:46;;;;;;;3.17;1.95;;;28.20;34.30;;;;;;4932730;29;20101;-68
2022/09/05 11:01:24;;;;;;;3.20;2.00;;;28.30;34.20;;;;;;4932835;29;20044;-68
2022/09/05 11:04:06;;;;;;;3.60;2.85;;;28.30;34.60;;;;;;4932612;29;20107;-68
2022/09/05 11:07:15;;;;;;;4.10;2.13;;;28.30;34.80;;;;;;4926992;29;20027;-71
2022/09/05 11:10:01;;;;;;;2.22;1.88;;;28.20;34.90;;;;;;4913150;29;20055;-68
2022/09/05 11:12:36;;;;;;;2.90;1.73;;;28.20;35.00;;;;;;4925296;28;20038;-69
2022/09/05 11:15:21;;;;;;;5.15;2.22;;;28.20;35.70;;;;;;4971007;28;20047;-69
2022/09/05 11:18:15;;;;;;;3.58;2.15;;;28.10;35.90;;;;;;4970421;28;20049;-68
2022/09/05 11:20:47;;;;;;;2.92;2.13;;;28.10;35.70;;;;;;4948183;28;20039;-68
2022/09/05 11:23:30;;;;;;;1.90;1.52;;;28.10;35.40;;;;;;4934988;29;20054;-68
2022/09/05 11:26:06;;;;;;;5.35;1.90;;;28.00;34.90;;;;;;4929709;29;20080;-68
2022/09/05 11:28:53;;;;;;;2.35;2.15;;;28.20;34.60;;;;;;4932365;29;20689;-68
2022/09/05 11:31:22;;;;;;;3.25;2.25;;;28.00;34.50;;;;;;4932487;29;20059;-68
2022/09/05 11:34:24;;;;;;;3.58;1.90;;;28.10;34.00;;;;;;4916203;29;20095;-68
2022/09/05 11:36:58;;;;;;;1.83;1.60;;;28.00;33.70;;;;;;4897589;29;20502;-69
2022/09/05 11:39:35;;;;;;;6.25;2.13;;;28.10;35.00;;;;;;4913312;29;20044;-69
2022/09/05 11:42:25;;;;;;;3.67;2.17;;;28.00;35.50;;;;;;4915724;29;20448;-69
2022/09/05 11:45:04;;;;;;;2.25;1.80;;;28.00;35.50;;;;;;4927050;29;20051;-68
2022/09/05 11:47:51;;;;;;;3.00;1.60;;;27.90;34.90;;;;;;4931900;29;20883;-71
2022/09/05 11:50:37;;;;;;;3.03;1.40;;;28.00;35.40;;;;;;4931569;29;20493;-68
2022/09/05 11:53:09;;;;;;;4.15;2.10;;;27.80;33.80;;;;;;4932085;29;20035;-66
2022/09/05 11:56:05;;;;;;;2.05;1.52;;;27.80;33.80;;;;;;4932279;29;20120;-68
2022/09/05 11:58:55;;;;;;;2.60;1.50;;;27.80;34.60;;;;;;4963616;28;20193;-69
2022/09/05 12:01:41;;;;;;;2.58;1.90;;;27.80;34.40;;;;;;4970433;28;20046;-68
2022/09/05 12:04:15;;;;;;;2.10;1.90;;;27.80;34.10;;;;;;4954213;28;20107;-67
2022/09/05 12:06:44;;;;;;;3.38;1.38;;;27.90;33.40;;;;;;4970129;28;20046;-68
2022/09/05 12:09:30;;;;;;;3.88;2.10;;;27.70;34.20;;;;;;4970300;28;20236;-68
2022/09/05 12:12:02;;;;;;;4.03;2.17;;;27.80;34.30;;;;;;4970430;28;20038;-68
2022/09/05 12:15:03;;;;;;;2.65;1.73;;;27.80;30.70;;;;;;4989989;28;20050;-69
2022/09/05 12:17:51;;;;;;;2.20;2.00;;;27.90;35.10;;;;;;4992355;28;20041;-69
2022/09/05 12:20:28;;;;;;;3.70;1.88;;;27.90;34.60;;;;;;4992674;28;20042;-68
2022/09/05 12:23:04;;;;;;;3.03;1.85;;;27.80;35.40;;;;;;4992600;28;20034;-68
2022/09/05 12:25:56;;;;;;;3.95;1.60;;;27.70;33.40;;;;;;4992332;28;20046;-68
2022/09/05 12:28:54;;;;;;;6.18;2.45;;;27.80;34.50;;;;;;5022447;28;20125;-68
2022/09/05 12:31:44;;;;;;;6.78;1.90;;;27.80;34.90;;;;;;5027731;28;20047;-70
2022/09/05 12:34:17;;;;;;;3.92;2.28;;;27.80;35.70;;;;;;5028724;28;20031;-70
2022/09/05 12:36:46;;;;;;;;;;;27.80;36.70;;;;;;5029243;28;20041;-70
2022/09/05 12:39:20;;;;;;;1.92;1.73;;;27.70;37.70;;;;;;5012391;28;19909;-69
2022/09/05 12:42:09;;;;;;;3.13;2.20;;;27.80;37.10;;;;;;5028266;28;20041;-70
2022/09/05 12:44:57;;;;;;;1.77;1.58;;;27.80;37.60;;;;;;5027914;28;20609;-67
2022/09/05 12:47:28;;;;;;;3.72;2.20;;;27.70;37.20;;;;;;5028953;28;20046;-70
2022/09/05 12:50:24;;;;;;;1.30;1.17;;;27.80;36.00;;;;;;5028988;28;20087;-69
2022/09/05 12:53:02;;;;;;;6.05;1.67;;;27.60;38.40;;;;;;4969977;28;20051;-68
2022/09/05 12:55:35;;;;;;;2.78;1.90;;;27.70;36.10;;;;;;4970226;28;20058;-69
2022/09/05 12:58:13;;;;;;;3.75;2.33;;;27.70;37.20;;;;;;4969946;28;20109;-70
2022/09/05 13:00:45;;;;;;;2.78;1.98;;;27.60;36.80;;;;;;4952408;28;20062;-68
2022/09/05 13:03:20;;;;;;;5.07;2.00;;;27.60;33.70;;;;;;4951753;28;20058;-69
2022/09/05 13:06:22;;;;;;;1.52;1.42;;;27.60;34.70;;;;;;4952532;29;20446;-69
2022/09/05 13:08:56;;;;;;;2.53;1.75;;;27.60;37.80;;;;;;4915711;29;20112;-69
2022/09/05 13:11:23;;;;;;;1.70;1.50;;;27.60;38.40;;;;;;4912494;29;20079;-68
2022/09/05 13:14:05;;;;;;;3.65;1.65;;;27.60;38.30;;;;;;4915938;29;20068;-70
2022/09/05 13:16:38;;;;;;;6.22;2.10;;;27.70;38.20;;;;;;4928817;29;20551;-69
2022/09/05 13:19:09;;;;;;;3.00;2.13;;;27.70;37.80;;;;;;4935172;29;20047;-69
2022/09/05 13:21:51;;;;;;;1.33;1.23;;;27.60;37.70;;;;;;4934785;29;20082;-70
2022/09/05 13:25:03;;;;;;;1.35;1.17;;;27.50;37.20;;;;;;4934642;29;20055;-68
2022/09/05 13:27:38;;;;;;;2.78;1.80;;;27.70;37.70;;;;;;4859133;29;20050;-68
2022/09/05 13:30:12;;;;;;;4.65;2.05;;;27.60;37.60;;;;;;4890511;29;20049;-72
2022/09/05 13:32:47;;;;;;;3.17;1.90;;;27.60;37.80;;;;;;4896547;29;20103;-69
2022/09/05 13:35:35;;;;;;;4.90;2.58;;;27.50;38.00;;;;;;4899510;29;20063;-68
2022/09/05 13:38:07;;;;;;;3.00;1.60;;;27.60;37.40;;;;;;4891978;29;20049;-69
2022/09/05 13:40:42;;;;;;;;;;;27.50;38.20;;;;;;4909082;29;20084;-70
2022/09/05 13:43:10;;;;;;;3.22;1.80;;;27.50;38.70;;;;;;4896185;29;20288;-70
2022/09/05 13:46:08;;;;;;;2.58;1.95;;;27.50;38.70;;;;;;4921070;29;20044;-69
2022/09/05 13:48:55;;;;;;;4.05;2.20;;;27.40;38.50;;;;;;4933933;29;20047;-69
2022/09/05 13:51:40;;;;;;;4.18;1.63;;;27.60;39.00;;;;;;4933404;29;20048;-70
2022/09/05 13:54:23;;;;;;;3.42;1.95;;;27.40;39.10;;;;;;4933929;29;20066;-68
2022/09/05 13:57:00;;;;;;;2.90;1.95;;;27.40;39.30;;;;;;4933630;29;20040;-69
2022/09/05 13:59:27;;;;;;;1.25;1.15;;;27.40;39.20;;;;;;4950313;29;20082;-69
2022/09/05 14:02:08;;;;;;;2.05;1.60;;;27.40;38.30;;;;;;4952833;29;20509;-69
2022/09/05 14:05:18;;;;;;;1.60;1.50;;;27.50;39.40;;;;;;4997109;28;20050;-69
2022/09/05 14:07:52;;;;;;;2.58;1.40;;;27.40;39.00;;;;;;4987718;28;20472;-69
2022/09/05 14:10:53;;;;;;;2.60;1.85;;;27.40;39.30;;;;;;4987998;28;20043;-70